Airfield :
LOGIN :

Register | Disclaimer

   EN    FR    IT 

 










Legend :    VFR   Marginal VFR   IFR   Intensive IFR   Very Intensive IFR
Visi :
Ceiling :
>= 8 km
>= 3000ft
5 to 8 km
1000 to 3000 ft
1500m to 5 km
500 to 1000 ft
800 to 1500m
200 to 500 ft
< 800m
< 200 ft
Symbols :   Thunderstorms  Fog  Heavy snow  Heavy precipitations  Wind > 20 kt
SIGMETs :     Misc.  Thunderstorms  Icing  Turbulence  Mountain Waves  Volcanic Ashes







- Airport Elevation : 146 ft
- IATA code : RKE


EKRK - Roskilde Tune

CURRENT METAR :
  • 220903Z 16007KT 2000 -RA SCT002 OVC005 08/08 Q0999

EXPIRED METARs :
  • 220850Z 16006KT 2000 -RA SCT002 OVC005 07/07 Q0999
  • 220846Z 16006KT 2000 -RA SCT002 OVC005 07/07 Q0999
  • 220820Z AUTO 13008KT 4300NDV -RA BR SCT001/// BKN003/// OVC006/// 07/07 Q0999
  • 220750Z AUTO 14009KT 6000NDV -SHRA FEW001/// BKN003/// 07/06 Q0999
  • 220720Z AUTO 14011KT 9999NDV -SHRA BKN002/// OVC004/// 06/06 Q0999
  • 220650Z AUTO 14012KT 9000NDV -SHRA BKN002/// BKN004/// 06/06 Q1000
  • 220620Z AUTO 14013KT 9999NDV -SHRA SCT002/// BKN004/// OVC006/// 06/05 Q1000

TAF TAF EKRK
Valid from the 22 at 09:00 until the 22 at 18:00 UTC


220820Z 2209/2218 15010KT 5000 BKN004
TEMPO 2209/2218 2000 RADZ BKN008
BECMG 2210/2212 22015KT
No reported NOTAMs for that airfield.



MET'MAP, your aeronautical weather chart ! - Copyright ORBIFLY December 2007 - Disclaimer

ORBIFLY MET'MAP TEAM :

Programming & Development : Alexandra Zaïnal
Concept & Development : Baudouin d'Aumeries
Co-Development & Prog : Marc-Olivier Méhu
Technical & hardware support : Manuel Goepfert

Contact : metmap@orbifly.com




SOURCES & CREDITS :

   NOAA